Weather at Nongoma Airport

Public forecast

Using degrees Celsius for public forecast. Weather courtesy of forecast.io.

Closest aviation weather report (METAR) to Nongoma Airport

Report is more than 6 hours old.

Closest report is Nhlangano Airport, 53.2 nm (98.6 km) NNW. Retrieved 2018/06/01 09:00 UTC (2 years ago):

FDNH 010900Z AUTO 33014G25KT //// // ////// 19/02 Q0998

Closest aviation forecast (TAF) to Nongoma Airport

Forecast is more than 12 hours old.

Closest forecast is Richards Bay Airport, 54.7 nm (101.4 km) SSE. Retrieved 2014/08/25 07:00 UTC (6 years ago):

TAF FARB 250600Z 2507/2518 24005KT CAVOK BECMG 2509/2511 20015KT BECMG 2515/2517 14012KT TX23/2511ZTN15/2518Z